Atlantic Companion — SKPE — position and weather

sailwx.info

Track history (hours):
 
Tides and Currents Weather Stations Pressure Air Temp Water Temp Dewpoint Dewpoint Depression Visibility Wind Speed Wind Dir Waves Ship Positions

Atlantic Companion

Last reported at 2014-Dec-19 11:33 UTC. Time now 2014-Dec-20 02:19 UTC.
Position N 38°00' W 076°12'.

Length 292 m; beam 32.3 m; draft 11.6 m.

Type: Cargo ship. MMSI: 265142000.

Date/timePositionNaut miles runAvg speedWind from/ knotsBaromVisibWave heightAir tempDewpointWater temp
2014-Dec-19 11:33N 38°00' W 076°12'5217.2
2014-Dec-19 08:33N 38°51' W 076°24'1514.7
2014-Dec-19 07:33N 39°06' W 076°24'1110.6
2014-Dec-19 06:34N 39°14' W 076°32'1 0.6
2014-Dec-19 05:32N 39°14' W 076°32'0 0.0
2014-Dec-19 04:32N 39°14' W 076°32'0 0.0
2014-Dec-19 03:32N 39°14' W 076°32'0 0.0
2014-Dec-19 02:32N 39°14' W 076°32'0 0.0
2014-Dec-19 01:32N 39°14' W 076°32'0 0.0
2014-Dec-19 00:32N 39°14' W 076°32'0 0.0
2014-Dec-18 23:32N 39°14' W 076°32'0 0.0
2014-Dec-18 22:32N 39°14' W 076°32'0 0.0
2014-Dec-18 21:32N 39°14' W 076°32'0 0.0
2014-Dec-18 20:32N 39°14' W 076°32'0 0.0
2014-Dec-18 19:32N 39°14' W 076°32'0 0.0
2014-Dec-18 18:32N 39°14' W 076°32'0 0.0
2014-Dec-18 17:32N 39°14' W 076°32'0 0.0
2014-Dec-18 16:32N 39°14' W 076°32'0 0.0
2014-Dec-18 15:32N 39°14' W 076°32'0 0.0
2014-Dec-18 14:32N 39°14' W 076°32'0 0.0
2014-Dec-18 13:32N 39°14' W 076°32'0 0.0
2014-Dec-18 12:32N 39°14' W 076°32'0 0.0
2014-Dec-18 11:32N 39°14' W 076°32'0 0.0
2014-Dec-18 10:32N 39°14' W 076°32'0 0.0
2014-Dec-18 09:32N 39°14' W 076°32'0 0.0
2014-Dec-18 08:32N 39°14' W 076°32'0 0.0
2014-Dec-18 07:32N 39°14' W 076°32'0 0.0
2014-Dec-18 06:32N 39°14' W 076°32'0 0.0
2014-Dec-18 05:32N 39°14' W 076°32'0 0.0
2014-Dec-18 04:32N 39°14' W 076°32'0 0.3
2014-Dec-18 03:33N 39°14' W 076°32'7 6.6
2014-Dec-18 02:33N 39°10' W 076°25'9 8.6
2014-Dec-18 01:33N 39°13' W 076°15'105 8.1
2014-Dec-17 12:33N 39°26' W 074°00'1817.7
2014-Dec-17 11:33N 39°43' W 073°52'1817.8
2014-Dec-17 10:33N 40°01' W 073°50'2311.7
2014-Dec-17 08:33N 40°24' W 073°49'9 8.7
2014-Dec-17 07:33N 40°30' W 073°57'1111.0
2014-Dec-17 06:33N 40°39' W 074°05'3 2.7
2014-Dec-17 05:33N 40°40' W 074°08'1 1.3
2014-Dec-17 04:32N 40°42' W 074°08'0 0.0
2014-Dec-17 03:32N 40°42' W 074°08'0 0.0
2014-Dec-17 02:32N 40°42' W 074°08'0 0.0
2014-Dec-17 01:32N 40°42' W 074°08'0 0.0
2014-Dec-17 00:32N 40°42' W 074°08'0 0.0
2014-Dec-16 23:32N 40°42' W 074°08'0 0.0
2014-Dec-16 22:32N 40°42' W 074°08'0 0.0
2014-Dec-16 21:32N 40°42' W 074°08'2 2.3
2014-Dec-16 20:33N 40°40' W 074°09'0 0.2
2014-Dec-16 19:28N 40°40' W 074°09'0 0.0
2014-Dec-16 18:31N 40°40' W 074°09'0 0.0
2014-Dec-16 17:31N 40°40' W 074°09'0 0.0
2014-Dec-16 16:31N 40°40' W 074°09'0 0.0
2014-Dec-16 15:22N 40°40' W 074°09'0 0.0
2014-Dec-16 14:31N 40°40' W 074°09'0 0.0
2014-Dec-16 13:31N 40°40' W 074°09'0 0.0
2014-Dec-16 12:16N 40°40' W 074°09'1 0.7
2014-Dec-16 11:33N 40°39' W 074°09'5 5.0
2014-Dec-16 10:33N 40°37' W 074°03'1010.3
2014-Dec-16 09:33N 40°29' W 073°54'9 8.6
2014-Dec-16 08:32N 40°27' W 073°43'10 9.5
2014-Dec-16 07:30N 40°28' W 073°30'1313.5
2014-Dec-16 06:33N 40°30' W 073°13'1616.2
2014-Dec-16 05:32N 40°30' W 072°52'1616.2
2014-Dec-16 04:33N 40°30' W 072°31'1616.0
2014-Dec-16 03:32N 40°31' W 072°10'1616.3
2014-Dec-16 02:33N 40°31' W 071°48'1717.1
2014-Dec-16 01:33N 40°32' W 071°26'1615.8
2014-Dec-16 00:31N 40°33' W 071°04'1616.6
2014-Dec-15 23:33N 40°33' W 070°43'1716.7
2014-Dec-15 22:32N 40°36' W 070°21'1616.5
2014-Dec-15 21:33N 40°39' W 070°00'1514.8
2014-Dec-15 20:33N 40°42' W 069°41'1 0.6
2014-Dec-15 19:31N 40°41' W 069°42'1 0.9
2014-Dec-15 18:33N 40°40' W 069°42'10 9.6
2014-Dec-15 17:31N 40°39' W 069°29'2318.1
2014-Dec-15 16:16N 40°42' W 068°59'1818.2
2014-Dec-15 15:18N 40°47' W 068°36'  
2014-Dec-11 18:00N 45°06' W 041°54'18215.2 1029.9 2.2 3.016.0 13.9
2014-Dec-11 06:00N 45°12' W 037°36'8914.8 1022.7 1.1 6.015.3 13.8
2014-Dec-11 00:00N 45°18' W 035°30'18615.5 210 / 251029.610.8 5.014.4 12.7
2014-Dec-10 12:00N 45°24' W 031°06'18415.3 090 / 201036.7 2.2 5.012.0 12.6
2014-Dec-10 00:00N 46°18' W 026°54'18515.4 1035.2 5.4 3.0 9.5 13.0
2014-Dec-09 12:00N 47°24' W 022°42'   220 / 271027.0 5.4 4.013.0 11.2
Track history (hours):
 
Tides and Currents Weather Stations Pressure Air Temp Water Temp Dewpoint Dewpoint Depression Visibility Wind Speed Wind Dir Waves Ship Positions

Atlantic Companion

Last reported at 2014-Dec-19 11:33 UTC. Time now 2014-Dec-20 02:19 UTC.
Position N 38°00' W 076°12'.

Length 292 m; beam 32.3 m; draft 11.6 m.

Type: Cargo ship. MMSI: 265142000.

Date/timePositionNaut miles runAvg speedWind from/ knotsBaromVisibWave heightAir tempDewpointWater temp
2014-Dec-19 11:33N 38°00' W 076°12'5217.2
2014-Dec-19 08:33N 38°51' W 076°24'1514.7
2014-Dec-19 07:33N 39°06' W 076°24'1110.6
2014-Dec-19 06:34N 39°14' W 076°32'1 0.6
2014-Dec-19 05:32N 39°14' W 076°32'0 0.0
2014-Dec-19 04:32N 39°14' W 076°32'0 0.0
2014-Dec-19 03:32N 39°14' W 076°32'0 0.0
2014-Dec-19 02:32N 39°14' W 076°32'0 0.0
2014-Dec-19 01:32N 39°14' W 076°32'0 0.0
2014-Dec-19 00:32N 39°14' W 076°32'0 0.0
2014-Dec-18 23:32N 39°14' W 076°32'0 0.0
2014-Dec-18 22:32N 39°14' W 076°32'0 0.0
2014-Dec-18 21:32N 39°14' W 076°32'0 0.0
2014-Dec-18 20:32N 39°14' W 076°32'0 0.0
2014-Dec-18 19:32N 39°14' W 076°32'0 0.0
2014-Dec-18 18:32N 39°14' W 076°32'0 0.0
2014-Dec-18 17:32N 39°14' W 076°32'0 0.0
2014-Dec-18 16:32N 39°14' W 076°32'0 0.0
2014-Dec-18 15:32N 39°14' W 076°32'0 0.0
2014-Dec-18 14:32N 39°14' W 076°32'0 0.0
2014-Dec-18 13:32N 39°14' W 076°32'0 0.0
2014-Dec-18 12:32N 39°14' W 076°32'0 0.0
2014-Dec-18 11:32N 39°14' W 076°32'0 0.0
2014-Dec-18 10:32N 39°14' W 076°32'0 0.0
2014-Dec-18 09:32N 39°14' W 076°32'0 0.0
2014-Dec-18 08:32N 39°14' W 076°32'0 0.0
2014-Dec-18 07:32N 39°14' W 076°32'0 0.0
2014-Dec-18 06:32N 39°14' W 076°32'0 0.0
2014-Dec-18 05:32N 39°14' W 076°32'0 0.0
2014-Dec-18 04:32N 39°14' W 076°32'0 0.3
2014-Dec-18 03:33N 39°14' W 076°32'7 6.6
2014-Dec-18 02:33N 39°10' W 076°25'9 8.6
2014-Dec-18 01:33N 39°13' W 076°15'105 8.1
2014-Dec-17 12:33N 39°26' W 074°00'1817.7
2014-Dec-17 11:33N 39°43' W 073°52'1817.8
2014-Dec-17 10:33N 40°01' W 073°50'2311.7
2014-Dec-17 08:33N 40°24' W 073°49'9 8.7
2014-Dec-17 07:33N 40°30' W 073°57'1111.0
2014-Dec-17 06:33N 40°39' W 074°05'3 2.7
2014-Dec-17 05:33N 40°40' W 074°08'1 1.3
2014-Dec-17 04:32N 40°42' W 074°08'0 0.0
2014-Dec-17 03:32N 40°42' W 074°08'0 0.0
2014-Dec-17 02:32N 40°42' W 074°08'0 0.0
2014-Dec-17 01:32N 40°42' W 074°08'0 0.0
2014-Dec-17 00:32N 40°42' W 074°08'0 0.0
2014-Dec-16 23:32N 40°42' W 074°08'0 0.0
2014-Dec-16 22:32N 40°42' W 074°08'0 0.0
2014-Dec-16 21:32N 40°42' W 074°08'2 2.3
2014-Dec-16 20:33N 40°40' W 074°09'0 0.2
2014-Dec-16 19:28N 40°40' W 074°09'0 0.0
2014-Dec-16 18:31N 40°40' W 074°09'0 0.0
2014-Dec-16 17:31N 40°40' W 074°09'0 0.0
2014-Dec-16 16:31N 40°40' W 074°09'0 0.0
2014-Dec-16 15:22N 40°40' W 074°09'0 0.0
2014-Dec-16 14:31N 40°40' W 074°09'0 0.0
2014-Dec-16 13:31N 40°40' W 074°09'0 0.0
2014-Dec-16 12:16N 40°40' W 074°09'1 0.7
2014-Dec-16 11:33N 40°39' W 074°09'5 5.0
2014-Dec-16 10:33N 40°37' W 074°03'1010.3
2014-Dec-16 09:33N 40°29' W 073°54'9 8.6
2014-Dec-16 08:32N 40°27' W 073°43'10 9.5
2014-Dec-16 07:30N 40°28' W 073°30'1313.5
2014-Dec-16 06:33N 40°30' W 073°13'1616.2
2014-Dec-16 05:32N 40°30' W 072°52'1616.2
2014-Dec-16 04:33N 40°30' W 072°31'1616.0
2014-Dec-16 03:32N 40°31' W 072°10'1616.3
2014-Dec-16 02:33N 40°31' W 071°48'1717.1
2014-Dec-16 01:33N 40°32' W 071°26'1615.8
2014-Dec-16 00:31N 40°33' W 071°04'1616.6
2014-Dec-15 23:33N 40°33' W 070°43'1716.7
2014-Dec-15 22:32N 40°36' W 070°21'1616.5
2014-Dec-15 21:33N 40°39' W 070°00'1514.8
2014-Dec-15 20:33N 40°42' W 069°41'1 0.6
2014-Dec-15 19:31N 40°41' W 069°42'1 0.9
2014-Dec-15 18:33N 40°40' W 069°42'10 9.6
2014-Dec-15 17:31N 40°39' W 069°29'2318.1
2014-Dec-15 16:16N 40°42' W 068°59'1818.2
2014-Dec-15 15:18N 40°47' W 068°36'  
2014-Dec-11 18:00N 45°06' W 041°54'18215.2 1029.9 2.2 3.016.0 13.9
2014-Dec-11 06:00N 45°12' W 037°36'8914.8 1022.7 1.1 6.015.3 13.8
2014-Dec-11 00:00N 45°18' W 035°30'18615.5 210 / 251029.610.8 5.014.4 12.7
2014-Dec-10 12:00N 45°24' W 031°06'18415.3 090 / 201036.7 2.2 5.012.0 12.6
2014-Dec-10 00:00N 46°18' W 026°54'18515.4 1035.2 5.4 3.0 9.5 13.0
2014-Dec-09 12:00N 47°24' W 022°42'   220 / 271027.0 5.4 4.013.0 11.2

Dump ship's entire track history